sensor_id;sensor_type;location;lat;lon;timestamp;temperature;humidity
216;HTU21D;45701;48.81287245;9.14186865;2022-08-04T00:01:11;23.89;50.24
216;HTU21D;45701;48.81287245;9.14186865;2022-08-04T00:03:42;24.00;49.92
216;HTU21D;45701;48.81287245;9.14186865;2022-08-04T00:06:22;23.95;50.19
216;HTU21D;45701;48.81287245;9.14186865;2022-08-04T00:08:55;23.85;50.14
216;HTU21D;45701;48.81287245;9.14186865;2022-08-04T00:11:25;23.68;50.72
216;HTU21D;45701;48.81287245;9.14186865;2022-08-04T00:13:53;23.72;50.33
216;HTU21D;45701;48.81287245;9.14186865;2022-08-04T00:16:22;23.84;50.02
216;HTU21D;45701;48.81287245;9.14186865;2022-08-04T00:18:54;23.75;50.29
216;HTU21D;45701;48.81287245;9.14186865;2022-08-04T00:21:24;23.85;50.01
216;HTU21D;45701;48.81287245;9.14186865;2022-08-04T00:23:53;23.67;50.69
216;HTU21D;45701;48.81287245;9.14186865;2022-08-04T00:26:20;23.53;51.32
216;HTU21D;45701;48.81287245;9.14186865;2022-08-04T00:28:47;23.79;50.76
216;HTU21D;45701;48.81287245;9.14186865;2022-08-04T00:31:15;23.96;50.40
216;HTU21D;45701;48.81287245;9.14186865;2022-08-04T00:33:43;23.86;50.53
216;HTU21D;45701;48.81287245;9.14186865;2022-08-04T00:36:12;23.72;50.95
216;HTU21D;45701;48.81287245;9.14186865;2022-08-04T00:38:41;23.89;50.51
216;HTU21D;45701;48.81287245;9.14186865;2022-08-04T00:41:18;23.58;51.67
216;HTU21D;45701;48.81287245;9.14186865;2022-08-04T00:43:57;23.85;50.78
216;HTU21D;45701;48.81287245;9.14186865;2022-08-04T00:46:52;23.70;51.63
216;HTU21D;45701;48.81287245;9.14186865;2022-08-04T00:52:40;23.49;52.30
216;HTU21D;45701;48.81287245;9.14186865;2022-08-04T00:55:26;23.51;51.67
216;HTU21D;45701;48.81287245;9.14186865;2022-08-04T00:58:22;23.47;52.29
216;HTU21D;45701;48.81287245;9.14186865;2022-08-04T01:00:58;23.52;52.04
216;HTU21D;45701;48.81287245;9.14186865;2022-08-04T01:03:41;23.57;51.95
216;HTU21D;45701;48.81287245;9.14186865;2022-08-04T01:06:21;23.51;51.50
216;HTU21D;45701;48.81287245;9.14186865;2022-08-04T01:09:00;23.44;51.29
216;HTU21D;45701;48.81287245;9.14186865;2022-08-04T01:11:44;23.38;51.19
216;HTU21D;45701;48.81287245;9.14186865;2022-08-04T01:14:28;23.73;49.91
216;HTU21D;45701;48.81287245;9.14186865;2022-08-04T01:17:06;23.52;51.32
216;HTU21D;45701;48.81287245;9.14186865;2022-08-04T01:19:53;23.32;51.87
216;HTU21D;45701;48.81287245;9.14186865;2022-08-04T01:26:01;23.10;53.01
216;HTU21D;45701;48.81287245;9.14186865;2022-08-04T01:28:53;23.32;51.49
216;HTU21D;45701;48.81287245;9.14186865;2022-08-04T01:31:25;23.20;52.46
216;HTU21D;45701;48.81287245;9.14186865;2022-08-04T01:33:59;23.20;52.49
216;HTU21D;45701;48.81287245;9.14186865;2022-08-04T01:36:27;23.44;50.79
216;HTU21D;45701;48.81287245;9.14186865;2022-08-04T01:38:55;23.34;51.66
216;HTU21D;45701;48.81287245;9.14186865;2022-08-04T01:41:23;23.17;52.39
216;HTU21D;45701;48.81287245;9.14186865;2022-08-04T01:43:54;23.27;51.74
216;HTU21D;45701;48.81287245;9.14186865;2022-08-04T01:46:22;23.55;50.91
216;HTU21D;45701;48.81287245;9.14186865;2022-08-04T01:48:53;23.60;51.32
216;HTU21D;45701;48.81287245;9.14186865;2022-08-04T01:51:21;23.69;51.20
216;HTU21D;45701;48.81287245;9.14186865;2022-08-04T01:53:49;23.53;51.82
216;HTU21D;45701;48.81287245;9.14186865;2022-08-04T01:56:17;23.49;52.11
216;HTU21D;45701;48.81287245;9.14186865;2022-08-04T01:58:44;23.42;52.24
216;HTU21D;45701;48.81287245;9.14186865;2022-08-04T02:01:12;23.47;52.13
216;HTU21D;45701;48.81287245;9.14186865;2022-08-04T02:03:40;23.29;52.65
216;HTU21D;45701;48.81287245;9.14186865;2022-08-04T02:06:17;23.21;52.81
216;HTU21D;45701;48.81287245;9.14186865;2022-08-04T02:08:50;23.25;52.54
216;HTU21D;45701;48.81287245;9.14186865;2022-08-04T02:11:20;23.01;53.84
216;HTU21D;45701;48.81287245;9.14186865;2022-08-04T02:13:54;22.77;54.86
216;HTU21D;45701;48.81287245;9.14186865;2022-08-04T02:16:29;22.68;55.30
216;HTU21D;45701;48.81287245;9.14186865;2022-08-04T02:19:01;22.79;55.04
216;HTU21D;45701;48.81287245;9.14186865;2022-08-04T02:21:30;22.83;54.90
216;HTU21D;45701;48.81287245;9.14186865;2022-08-04T02:24:00;23.23;52.85
216;HTU21D;45701;48.81287245;9.14186865;2022-08-04T02:26:28;23.24;52.46
216;HTU21D;45701;48.81287245;9.14186865;2022-08-04T02:29:01;23.14;52.45
216;HTU21D;45701;48.81287245;9.14186865;2022-08-04T02:31:33;22.98;52.89
216;HTU21D;45701;48.81287245;9.14186865;2022-08-04T02:34:07;23.14;52.40
216;HTU21D;45701;48.81287245;9.14186865;2022-08-04T02:36:36;23.26;52.14
216;HTU21D;45701;48.81287245;9.14186865;2022-08-04T02:39:05;23.23;52.30
216;HTU21D;45701;48.81287245;9.14186865;2022-08-04T02:41:33;23.15;52.59
216;HTU21D;45701;48.81287245;9.14186865;2022-08-04T02:44:02;23.08;52.98
216;HTU21D;45701;48.81287245;9.14186865;2022-08-04T02:46:32;23.15;52.88
216;HTU21D;45701;48.81287245;9.14186865;2022-08-04T02:49:02;23.10;53.20
216;HTU21D;45701;48.81287245;9.14186865;2022-08-04T02:51:32;23.03;53.23
216;HTU21D;45701;48.81287245;9.14186865;2022-08-04T02:54:02;23.01;53.40
216;HTU21D;45701;48.81287245;9.14186865;2022-08-04T02:56:31;22.83;54.06
216;HTU21D;45701;48.81287245;9.14186865;2022-08-04T02:59:00;22.90;54.36
216;HTU21D;45701;48.81287245;9.14186865;2022-08-04T03:01:27;22.52;55.64
216;HTU21D;45701;48.81287245;9.14186865;2022-08-04T03:04:05;22.19;56.88
216;HTU21D;45701;48.81287245;9.14186865;2022-08-04T03:22:23;21.50;60.24
216;HTU21D;45701;48.81287245;9.14186865;2022-08-04T03:30:55;21.74;59.61
216;HTU21D;45701;48.81287245;9.14186865;2022-08-04T03:33:44;21.69;59.80
216;HTU21D;45701;48.81287245;9.14186865;2022-08-04T03:36:37;21.92;58.80
216;HTU21D;45701;48.81287245;9.14186865;2022-08-04T03:39:44;21.76;59.32
216;HTU21D;45701;48.81287245;9.14186865;2022-08-04T03:42:33;21.49;60.55
216;HTU21D;45701;48.81287245;9.14186865;2022-08-04T03:48:48;21.32;61.06
216;HTU21D;45701;48.81287245;9.14186865;2022-08-04T03:51:29;21.24;61.11
216;HTU21D;45701;48.81287245;9.14186865;2022-08-04T03:54:37;21.53;59.92
216;HTU21D;45701;48.81287245;9.14186865;2022-08-04T04:00:08;21.68;59.38
216;HTU21D;45701;48.81287245;9.14186865;2022-08-04T04:02:59;21.69;59.41
216;HTU21D;45701;48.81287245;9.14186865;2022-08-04T04:05:40;21.93;58.42
216;HTU21D;45701;48.81287245;9.14186865;2022-08-04T04:11:25;21.80;58.88
216;HTU21D;45701;48.81287245;9.14186865;2022-08-04T04:14:10;21.96;58.31
216;HTU21D;45701;48.81287245;9.14186865;2022-08-04T04:16:54;21.80;58.56
216;HTU21D;45701;48.81287245;9.14186865;2022-08-04T04:19:45;21.98;58.13
216;HTU21D;45701;48.81287245;9.14186865;2022-08-04T04:22:42;22.04;58.12
216;HTU21D;45701;48.81287245;9.14186865;2022-08-04T04:25:18;22.02;57.96
216;HTU21D;45701;48.81287245;9.14186865;2022-08-04T04:28:04;21.81;58.01
216;HTU21D;45701;48.81287245;9.14186865;2022-08-04T04:30:43;21.91;58.32
216;HTU21D;45701;48.81287245;9.14186865;2022-08-04T04:33:30;21.66;58.51
216;HTU21D;45701;48.81287245;9.14186865;2022-08-04T04:36:08;21.72;58.77
216;HTU21D;45701;48.81287245;9.14186865;2022-08-04T04:38:46;21.68;58.87
216;HTU21D;45701;48.81287245;9.14186865;2022-08-04T04:41:35;21.80;58.52
216;HTU21D;45701;48.81287245;9.14186865;2022-08-04T04:44:41;22.14;57.32
216;HTU21D;45701;48.81287245;9.14186865;2022-08-04T04:47:21;22.18;57.67
216;HTU21D;45701;48.81287245;9.14186865;2022-08-04T04:49:56;21.96;58.92
216;HTU21D;45701;48.81287245;9.14186865;2022-08-04T04:52:29;21.85;59.40
216;HTU21D;45701;48.81287245;9.14186865;2022-08-04T04:55:11;22.10;58.68
216;HTU21D;45701;48.81287245;9.14186865;2022-08-04T04:57:40;22.31;57.98
216;HTU21D;45701;48.81287245;9.14186865;2022-08-04T05:00:10;22.28;58.23
216;HTU21D;45701;48.81287245;9.14186865;2022-08-04T05:06:06;22.60;56.21
216;HTU21D;45701;48.81287245;9.14186865;2022-08-04T05:08:58;22.63;56.13
216;HTU21D;45701;48.81287245;9.14186865;2022-08-04T05:11:56;22.42;57.93
216;HTU21D;45701;48.81287245;9.14186865;2022-08-04T05:14:28;22.49;57.60
216;HTU21D;45701;48.81287245;9.14186865;2022-08-04T05:17:02;22.50;57.71
216;HTU21D;45701;48.81287245;9.14186865;2022-08-04T05:19:37;22.36;58.37
216;HTU21D;45701;48.81287245;9.14186865;2022-08-04T05:22:10;22.39;58.58
216;HTU21D;45701;48.81287245;9.14186865;2022-08-04T05:24:40;22.46;58.43
216;HTU21D;45701;48.81287245;9.14186865;2022-08-04T05:27:13;22.79;55.69
216;HTU21D;45701;48.81287245;9.14186865;2022-08-04T05:29:45;22.65;61.16
216;HTU21D;45701;48.81287245;9.14186865;2022-08-04T05:32:19;22.85;60.70
216;HTU21D;45701;48.81287245;9.14186865;2022-08-04T05:35:04;22.82;58.85
216;HTU21D;45701;48.81287245;9.14186865;2022-08-04T05:37:34;23.03;55.69
216;HTU21D;45701;48.81287245;9.14186865;2022-08-04T05:40:04;22.99;61.38
216;HTU21D;45701;48.81287245;9.14186865;2022-08-04T05:42:34;22.93;62.05
216;HTU21D;45701;48.81287245;9.14186865;2022-08-04T05:45:03;22.95;60.83
216;HTU21D;45701;48.81287245;9.14186865;2022-08-04T05:47:32;22.99;59.19
216;HTU21D;45701;48.81287245;9.14186865;2022-08-04T05:49:59;23.13;63.63
216;HTU21D;45701;48.81287245;9.14186865;2022-08-04T05:52:28;23.12;60.77
216;HTU21D;45701;48.81287245;9.14186865;2022-08-04T05:54:56;23.52;53.45
216;HTU21D;45701;48.81287245;9.14186865;2022-08-04T05:57:24;23.51;55.75
216;HTU21D;45701;48.81287245;9.14186865;2022-08-04T05:59:52;23.60;56.03
216;HTU21D;45701;48.81287245;9.14186865;2022-08-04T06:02:22;23.64;53.07
216;HTU21D;45701;48.81287245;9.14186865;2022-08-04T06:04:51;23.72;53.09
216;HTU21D;45701;48.81287245;9.14186865;2022-08-04T06:07:18;23.71;55.63
216;HTU21D;45701;48.81287245;9.14186865;2022-08-04T06:09:45;23.68;55.85
216;HTU21D;45701;48.81287245;9.14186865;2022-08-04T06:12:16;23.86;52.88
216;HTU21D;45701;48.81287245;9.14186865;2022-08-04T06:14:46;23.83;57.24
216;HTU21D;45701;48.81287245;9.14186865;2022-08-04T06:17:18;23.91;55.90
216;HTU21D;45701;48.81287245;9.14186865;2022-08-04T06:19:48;23.85;57.45
216;HTU21D;45701;48.81287245;9.14186865;2022-08-04T06:22:18;23.80;57.71
216;HTU21D;45701;48.81287245;9.14186865;2022-08-04T06:24:47;24.19;51.17
216;HTU21D;45701;48.81287245;9.14186865;2022-08-04T06:27:16;24.15;55.10
216;HTU21D;45701;48.81287245;9.14186865;2022-08-04T06:29:45;24.18;55.49
216;HTU21D;45701;48.81287245;9.14186865;2022-08-04T06:32:14;24.18;55.83
216;HTU21D;45701;48.81287245;9.14186865;2022-08-04T06:34:54;24.41;51.85
216;HTU21D;45701;48.81287245;9.14186865;2022-08-04T06:37:24;24.61;50.30
216;HTU21D;45701;48.81287245;9.14186865;2022-08-04T06:39:52;24.66;50.05
216;HTU21D;45701;48.81287245;9.14186865;2022-08-04T06:42:21;24.74;49.81
216;HTU21D;45701;48.81287245;9.14186865;2022-08-04T06:44:51;24.86;50.05
216;HTU21D;45701;48.81287245;9.14186865;2022-08-04T06:47:19;24.95;49.44
216;HTU21D;45701;48.81287245;9.14186865;2022-08-04T06:49:48;24.94;50.52
216;HTU21D;45701;48.81287245;9.14186865;2022-08-04T06:52:17;25.08;49.41
216;HTU21D;45701;48.81287245;9.14186865;2022-08-04T06:54:47;25.24;48.73
216;HTU21D;45701;48.81287245;9.14186865;2022-08-04T06:57:15;25.36;48.36
216;HTU21D;45701;48.81287245;9.14186865;2022-08-04T06:59:43;25.43;48.65
216;HTU21D;45701;48.81287245;9.14186865;2022-08-04T07:02:13;25.59;48.08
216;HTU21D;45701;48.81287245;9.14186865;2022-08-04T07:04:41;25.72;47.63
216;HTU21D;45701;48.81287245;9.14186865;2022-08-04T07:07:09;25.80;47.11
216;HTU21D;45701;48.81287245;9.14186865;2022-08-04T07:09:37;25.90;47.40
216;HTU21D;45701;48.81287245;9.14186865;2022-08-04T07:12:06;25.99;47.05
216;HTU21D;45701;48.81287245;9.14186865;2022-08-04T07:14:33;26.09;47.15
216;HTU21D;45701;48.81287245;9.14186865;2022-08-04T07:17:02;26.26;44.83
216;HTU21D;45701;48.81287245;9.14186865;2022-08-04T07:19:30;26.38;44.25
216;HTU21D;45701;48.81287245;9.14186865;2022-08-04T07:21:57;26.52;43.35
216;HTU21D;45701;48.81287245;9.14186865;2022-08-04T07:24:28;26.63;42.62
216;HTU21D;45701;48.81287245;9.14186865;2022-08-04T07:26:55;26.76;43.20
216;HTU21D;45701;48.81287245;9.14186865;2022-08-04T07:29:23;26.85;43.45
216;HTU21D;45701;48.81287245;9.14186865;2022-08-04T07:31:51;27.00;42.60
216;HTU21D;45701;48.81287245;9.14186865;2022-08-04T07:34:18;27.17;41.44
216;HTU21D;45701;48.81287245;9.14186865;2022-08-04T07:36:45;27.30;42.10
216;HTU21D;45701;48.81287245;9.14186865;2022-08-04T07:39:12;27.36;41.86
216;HTU21D;45701;48.81287245;9.14186865;2022-08-04T07:41:40;27.50;41.89
216;HTU21D;45701;48.81287245;9.14186865;2022-08-04T07:44:08;27.38;42.30
216;HTU21D;45701;48.81287245;9.14186865;2022-08-04T07:46:37;27.39;40.84
216;HTU21D;45701;48.81287245;9.14186865;2022-08-04T07:49:04;27.59;39.68
216;HTU21D;45701;48.81287245;9.14186865;2022-08-04T07:51:33;27.53;41.17
216;HTU21D;45701;48.81287245;9.14186865;2022-08-04T07:54:01;27.57;40.65
216;HTU21D;45701;48.81287245;9.14186865;2022-08-04T07:56:30;27.70;39.49
216;HTU21D;45701;48.81287245;9.14186865;2022-08-04T07:58:58;27.71;41.02
216;HTU21D;45701;48.81287245;9.14186865;2022-08-04T08:01:25;27.79;39.40
216;HTU21D;45701;48.81287245;9.14186865;2022-08-04T08:03:55;27.86;39.88
216;HTU21D;45701;48.81287245;9.14186865;2022-08-04T08:06:22;27.97;38.81
216;HTU21D;45701;48.81287245;9.14186865;2022-08-04T08:08:49;27.89;39.41
216;HTU21D;45701;48.81287245;9.14186865;2022-08-04T08:11:17;28.01;38.66
216;HTU21D;45701;48.81287245;9.14186865;2022-08-04T08:13:44;28.10;39.27
216;HTU21D;45701;48.81287245;9.14186865;2022-08-04T08:16:11;28.33;38.13
216;HTU21D;45701;48.81287245;9.14186865;2022-08-04T08:18:38;28.49;38.66
216;HTU21D;45701;48.81287245;9.14186865;2022-08-04T08:21:06;28.53;38.35
216;HTU21D;45701;48.81287245;9.14186865;2022-08-04T08:23:34;28.53;38.34
216;HTU21D;45701;48.81287245;9.14186865;2022-08-04T08:26:01;28.67;36.93
216;HTU21D;45701;48.81287245;9.14186865;2022-08-04T08:28:28;28.65;38.51
216;HTU21D;45701;48.81287245;9.14186865;2022-08-04T08:30:54;28.76;37.24
216;HTU21D;45701;48.81287245;9.14186865;2022-08-04T08:33:23;28.74;38.22
216;HTU21D;45701;48.81287245;9.14186865;2022-08-04T08:35:53;28.86;37.33
216;HTU21D;45701;48.81287245;9.14186865;2022-08-04T08:38:36;29.16;36.04
216;HTU21D;45701;48.81287245;9.14186865;2022-08-04T08:41:20;29.13;36.98
216;HTU21D;45701;48.81287245;9.14186865;2022-08-04T08:44:13;29.22;36.08
216;HTU21D;45701;48.81287245;9.14186865;2022-08-04T08:46:54;29.30;35.04
216;HTU21D;45701;48.81287245;9.14186865;2022-08-04T08:49:45;29.31;35.50
216;HTU21D;45701;48.81287245;9.14186865;2022-08-04T08:52:26;29.50;35.09
216;HTU21D;45701;48.81287245;9.14186865;2022-08-04T08:55:22;29.70;34.53
216;HTU21D;45701;48.81287245;9.14186865;2022-08-04T08:58:06;29.63;34.50
216;HTU21D;45701;48.81287245;9.14186865;2022-08-04T09:00:44;29.57;35.43
216;HTU21D;45701;48.81287245;9.14186865;2022-08-04T09:03:30;29.75;34.03
216;HTU21D;45701;48.81287245;9.14186865;2022-08-04T09:06:08;29.82;33.69
216;HTU21D;45701;48.81287245;9.14186865;2022-08-04T09:08:54;29.83;33.63
216;HTU21D;45701;48.81287245;9.14186865;2022-08-04T09:11:35;30.04;33.41
216;HTU21D;45701;48.81287245;9.14186865;2022-08-04T09:14:08;29.97;33.89
216;HTU21D;45701;48.81287245;9.14186865;2022-08-04T09:16:39;30.10;33.83
216;HTU21D;45701;48.81287245;9.14186865;2022-08-04T09:19:13;30.23;33.79
216;HTU21D;45701;48.81287245;9.14186865;2022-08-04T09:21:47;30.48;33.99
216;HTU21D;45701;48.81287245;9.14186865;2022-08-04T09:24:18;30.53;32.88
216;HTU21D;45701;48.81287245;9.14186865;2022-08-04T09:26:54;30.45;32.69
216;HTU21D;45701;48.81287245;9.14186865;2022-08-04T09:29:29;30.35;33.57
216;HTU21D;45701;48.81287245;9.14186865;2022-08-04T09:32:05;30.57;32.54
216;HTU21D;45701;48.81287245;9.14186865;2022-08-04T09:34:42;30.71;33.45
216;HTU21D;45701;48.81287245;9.14186865;2022-08-04T09:37:18;30.78;32.96
216;HTU21D;45701;48.81287245;9.14186865;2022-08-04T09:39:55;30.75;32.70
216;HTU21D;45701;48.81287245;9.14186865;2022-08-04T09:42:35;30.98;31.01
216;HTU21D;45701;48.81287245;9.14186865;2022-08-04T09:45:09;31.06;31.91
216;HTU21D;45701;48.81287245;9.14186865;2022-08-04T09:47:43;30.96;31.46
216;HTU21D;45701;48.81287245;9.14186865;2022-08-04T09:50:20;30.80;31.90
216;HTU21D;45701;48.81287245;9.14186865;2022-08-04T09:52:57;30.77;31.65
216;HTU21D;45701;48.81287245;9.14186865;2022-08-04T09:55:37;30.89;31.77
216;HTU21D;45701;48.81287245;9.14186865;2022-08-04T09:58:15;30.98;31.27
216;HTU21D;45701;48.81287245;9.14186865;2022-08-04T10:00:50;31.00;31.02
216;HTU21D;45701;48.81287245;9.14186865;2022-08-04T10:03:20;31.40;30.42
216;HTU21D;45701;48.81287245;9.14186865;2022-08-04T10:05:58;31.45;30.40
216;HTU21D;45701;48.81287245;9.14186865;2022-08-04T10:08:41;31.49;29.95
216;HTU21D;45701;48.81287245;9.14186865;2022-08-04T10:11:16;31.68;28.90
216;HTU21D;45701;48.81287245;9.14186865;2022-08-04T10:13:54;31.74;28.89
216;HTU21D;45701;48.81287245;9.14186865;2022-08-04T10:16:38;31.84;28.47
216;HTU21D;45701;48.81287245;9.14186865;2022-08-04T10:19:17;31.96;28.43
216;HTU21D;45701;48.81287245;9.14186865;2022-08-04T10:21:58;31.99;28.47
216;HTU21D;45701;48.81287245;9.14186865;2022-08-04T10:24:35;31.84;28.84
216;HTU21D;45701;48.81287245;9.14186865;2022-08-04T10:27:10;32.02;27.51
216;HTU21D;45701;48.81287245;9.14186865;2022-08-04T10:29:44;31.80;28.50
216;HTU21D;45701;48.81287245;9.14186865;2022-08-04T10:32:16;31.92;28.84
216;HTU21D;45701;48.81287245;9.14186865;2022-08-04T10:34:53;32.17;26.84
216;HTU21D;45701;48.81287245;9.14186865;2022-08-04T10:37:26;32.17;27.58
216;HTU21D;45701;48.81287245;9.14186865;2022-08-04T10:40:04;32.08;27.31
216;HTU21D;45701;48.81287245;9.14186865;2022-08-04T10:42:57;32.48;29.17
216;HTU21D;45701;48.81287245;9.14186865;2022-08-04T10:45:33;32.48;28.50
216;HTU21D;45701;48.81287245;9.14186865;2022-08-04T10:48:06;32.35;28.38
216;HTU21D;45701;48.81287245;9.14186865;2022-08-04T10:50:39;32.57;28.99
216;HTU21D;45701;48.81287245;9.14186865;2022-08-04T10:53:12;32.47;27.49
216;HTU21D;45701;48.81287245;9.14186865;2022-08-04T10:55:43;32.33;27.55
216;HTU21D;45701;48.81287245;9.14186865;2022-08-04T10:58:15;32.48;27.92
216;HTU21D;45701;48.81287245;9.14186865;2022-08-04T11:00:45;32.54;27.34
216;HTU21D;45701;48.81287245;9.14186865;2022-08-04T11:03:18;32.64;27.93
216;HTU21D;45701;48.81287245;9.14186865;2022-08-04T11:05:48;32.82;26.88
216;HTU21D;45701;48.81287245;9.14186865;2022-08-04T11:08:19;32.66;26.68
216;HTU21D;45701;48.81287245;9.14186865;2022-08-04T11:10:50;32.58;26.55
216;HTU21D;45701;48.81287245;9.14186865;2022-08-04T11:13:22;32.60;26.79
216;HTU21D;45701;48.81287245;9.14186865;2022-08-04T11:15:53;32.57;27.13
216;HTU21D;45701;48.81287245;9.14186865;2022-08-04T11:18:24;32.47;26.71
216;HTU21D;45701;48.81287245;9.14186865;2022-08-04T11:20:55;32.33;27.38
216;HTU21D;45701;48.81287245;9.14186865;2022-08-04T11:23:28;32.35;27.70
216;HTU21D;45701;48.81287245;9.14186865;2022-08-04T11:25:59;32.38;26.60
216;HTU21D;45701;48.81287245;9.14186865;2022-08-04T11:28:36;32.31;26.48
216;HTU21D;45701;48.81287245;9.14186865;2022-08-04T11:31:07;32.39;26.29
216;HTU21D;45701;48.81287245;9.14186865;2022-08-04T11:33:49;32.26;26.45
216;HTU21D;45701;48.81287245;9.14186865;2022-08-04T11:36:25;32.15;26.52
216;HTU21D;45701;48.81287245;9.14186865;2022-08-04T11:38:58;32.26;26.96
216;HTU21D;45701;48.81287245;9.14186865;2022-08-04T11:41:38;32.24;26.65
216;HTU21D;45701;48.81287245;9.14186865;2022-08-04T11:44:06;32.27;26.62
216;HTU21D;45701;48.81287245;9.14186865;2022-08-04T11:46:42;32.08;26.72
216;HTU21D;45701;48.81287245;9.14186865;2022-08-04T11:49:15;32.04;27.01
216;HTU21D;45701;48.81287245;9.14186865;2022-08-04T11:51:48;31.95;26.85
216;HTU21D;45701;48.81287245;9.14186865;2022-08-04T11:54:16;31.98;26.71
216;HTU21D;45701;48.81287245;9.14186865;2022-08-04T11:56:44;32.27;26.15
216;HTU21D;45701;48.81287245;9.14186865;2022-08-04T11:59:11;33.06;25.01
216;HTU21D;45701;48.81287245;9.14186865;2022-08-04T12:01:49;34.00;24.11
216;HTU21D;45701;48.81287245;9.14186865;2022-08-04T12:04:27;34.71;23.93
216;HTU21D;45701;48.81287245;9.14186865;2022-08-04T12:07:04;34.86;22.07
216;HTU21D;45701;48.81287245;9.14186865;2022-08-04T12:09:44;35.28;21.45
216;HTU21D;45701;48.81287245;9.14186865;2022-08-04T12:12:18;35.49;21.15
216;HTU21D;45701;48.81287245;9.14186865;2022-08-04T12:14:50;35.73;20.79
216;HTU21D;45701;48.81287245;9.14186865;2022-08-04T12:17:26;36.10;20.19
216;HTU21D;45701;48.81287245;9.14186865;2022-08-04T12:22:34;36.64;19.23
216;HTU21D;45701;48.81287245;9.14186865;2022-08-04T12:25:04;36.55;19.14
216;HTU21D;45701;48.81287245;9.14186865;2022-08-04T12:27:35;36.06;19.79
216;HTU21D;45701;48.81287245;9.14186865;2022-08-04T12:30:03;36.74;19.59
216;HTU21D;45701;48.81287245;9.14186865;2022-08-04T12:32:37;36.76;18.92
216;HTU21D;45701;48.81287245;9.14186865;2022-08-04T12:35:11;36.69;19.24
216;HTU21D;45701;48.81287245;9.14186865;2022-08-04T12:37:45;37.02;18.63
216;HTU21D;45701;48.81287245;9.14186865;2022-08-04T12:40:19;37.27;18.11
216;HTU21D;45701;48.81287245;9.14186865;2022-08-04T12:42:52;37.23;18.38
216;HTU21D;45701;48.81287245;9.14186865;2022-08-04T12:45:23;37.13;18.26
216;HTU21D;45701;48.81287245;9.14186865;2022-08-04T12:47:55;37.02;18.59
216;HTU21D;45701;48.81287245;9.14186865;2022-08-04T12:50:23;36.86;18.70
216;HTU21D;45701;48.81287245;9.14186865;2022-08-04T12:52:54;36.86;18.64
216;HTU21D;45701;48.81287245;9.14186865;2022-08-04T12:55:24;36.83;18.59
216;HTU21D;45701;48.81287245;9.14186865;2022-08-04T12:57:52;38.02;17.93
216;HTU21D;45701;48.81287245;9.14186865;2022-08-04T13:00:27;38.91;16.70
216;HTU21D;45701;48.81287245;9.14186865;2022-08-04T13:03:04;39.04;16.22
216;HTU21D;45701;48.81287245;9.14186865;2022-08-04T13:05:32;38.35;16.51
216;HTU21D;45701;48.81287245;9.14186865;2022-08-04T13:08:01;37.52;18.02
216;HTU21D;45701;48.81287245;9.14186865;2022-08-04T13:10:30;37.37;18.12
216;HTU21D;45701;48.81287245;9.14186865;2022-08-04T13:13:03;38.18;16.83
216;HTU21D;45701;48.81287245;9.14186865;2022-08-04T13:15:29;38.48;16.47
216;HTU21D;45701;48.81287245;9.14186865;2022-08-04T13:18:01;38.04;18.55
216;HTU21D;45701;48.81287245;9.14186865;2022-08-04T13:20:31;37.66;17.83
216;HTU21D;45701;48.81287245;9.14186865;2022-08-04T13:23:06;38.73;17.48
216;HTU21D;45701;48.81287245;9.14186865;2022-08-04T13:25:35;39.40;14.98
216;HTU21D;45701;48.81287245;9.14186865;2022-08-04T13:28:05;38.75;17.09
216;HTU21D;45701;48.81287245;9.14186865;2022-08-04T13:30:33;37.87;17.64
216;HTU21D;45701;48.81287245;9.14186865;2022-08-04T13:33:03;36.61;18.48
216;HTU21D;45701;48.81287245;9.14186865;2022-08-04T13:35:31;35.60;20.15
216;HTU21D;45701;48.81287245;9.14186865;2022-08-04T13:37:59;35.51;20.72
216;HTU21D;45701;48.81287245;9.14186865;2022-08-04T13:40:27;35.23;20.34
216;HTU21D;45701;48.81287245;9.14186865;2022-08-04T13:42:55;35.14;21.15
216;HTU21D;45701;48.81287245;9.14186865;2022-08-04T13:45:23;35.18;20.89
216;HTU21D;45701;48.81287245;9.14186865;2022-08-04T13:47:57;35.00;20.86
216;HTU21D;45701;48.81287245;9.14186865;2022-08-04T13:50:27;35.04;22.42
216;HTU21D;45701;48.81287245;9.14186865;2022-08-04T13:52:56;35.10;20.89
216;HTU21D;45701;48.81287245;9.14186865;2022-08-04T13:55:25;34.94;21.38
216;HTU21D;45701;48.81287245;9.14186865;2022-08-04T13:57:56;34.81;21.62
216;HTU21D;45701;48.81287245;9.14186865;2022-08-04T14:00:25;34.83;21.85
216;HTU21D;45701;48.81287245;9.14186865;2022-08-04T14:02:59;34.98;21.33
216;HTU21D;45701;48.81287245;9.14186865;2022-08-04T14:05:29;35.09;21.97
216;HTU21D;45701;48.81287245;9.14186865;2022-08-04T14:08:04;35.30;21.18
216;HTU21D;45701;48.81287245;9.14186865;2022-08-04T14:10:32;35.13;21.16
216;HTU21D;45701;48.81287245;9.14186865;2022-08-04T14:12:59;35.15;22.78
216;HTU21D;45701;48.81287245;9.14186865;2022-08-04T14:15:30;35.16;20.74
216;HTU21D;45701;48.81287245;9.14186865;2022-08-04T14:18:15;35.09;20.87
216;HTU21D;45701;48.81287245;9.14186865;2022-08-04T14:21:04;34.81;21.08
216;HTU21D;45701;48.81287245;9.14186865;2022-08-04T14:23:46;34.62;21.59
216;HTU21D;45701;48.81287245;9.14186865;2022-08-04T14:26:24;34.57;21.61
216;HTU21D;45701;48.81287245;9.14186865;2022-08-04T14:28:53;34.68;21.58
216;HTU21D;45701;48.81287245;9.14186865;2022-08-04T14:31:23;34.74;21.40
216;HTU21D;45701;48.81287245;9.14186865;2022-08-04T14:33:52;34.97;21.28
216;HTU21D;45701;48.81287245;9.14186865;2022-08-04T14:36:20;35.01;21.20
216;HTU21D;45701;48.81287245;9.14186865;2022-08-04T14:38:50;35.07;21.76
216;HTU21D;45701;48.81287245;9.14186865;2022-08-04T14:41:18;34.91;20.85
216;HTU21D;45701;48.81287245;9.14186865;2022-08-04T14:43:47;34.74;20.94
216;HTU21D;45701;48.81287245;9.14186865;2022-08-04T14:46:15;34.74;21.57
216;HTU21D;45701;48.81287245;9.14186865;2022-08-04T14:49:03;34.75;22.65
216;HTU21D;45701;48.81287245;9.14186865;2022-08-04T14:51:36;34.83;21.95
216;HTU21D;45701;48.81287245;9.14186865;2022-08-04T14:54:04;34.85;21.28